sensor_id;sensor_type;location;lat;lon;timestamp;pressure;altitude;pressure_sealevel;temperature;humidity
40730;BME280;26418;50.070;8.436;2022-07-17T00:01:43;100945.03;;;17.79;42.63
40730;BME280;26418;50.070;8.436;2022-07-17T00:04:08;100940.84;;;17.72;42.58
40730;BME280;26418;50.070;8.436;2022-07-17T00:06:34;100940.03;;;17.72;42.69
40730;BME280;26418;50.070;8.436;2022-07-17T00:08:59;100935.53;;;17.67;42.74
40730;BME280;26418;50.070;8.436;2022-07-17T00:11:27;100939.22;;;17.71;42.81
40730;BME280;26418;50.070;8.436;2022-07-17T00:13:52;100941.66;;;17.73;42.76
40730;BME280;26418;50.070;8.436;2022-07-17T00:16:18;100938.28;;;17.67;42.67
40730;BME280;26418;50.070;8.436;2022-07-17T00:18:43;100940.84;;;17.64;42.81
40730;BME280;26418;50.070;8.436;2022-07-17T00:21:09;100935.22;;;17.60;42.88
40730;BME280;26418;50.070;8.436;2022-07-17T00:23:34;100926.72;;;17.53;43.05
40730;BME280;26418;50.070;8.436;2022-07-17T00:26:00;100919.47;;;17.39;43.10
40730;BME280;26418;50.070;8.436;2022-07-17T00:28:29;100932.03;;;17.49;43.17
40730;BME280;26418;50.070;8.436;2022-07-17T00:30:55;100929.28;;;17.49;43.36
40730;BME280;26418;50.070;8.436;2022-07-17T00:33:20;100933.94;;;17.49;43.21
40730;BME280;26418;50.070;8.436;2022-07-17T00:35:45;100933.00;;;17.44;43.15
40730;BME280;26418;50.070;8.436;2022-07-17T00:38:11;100931.38;;;17.43;43.29
40730;BME280;26418;50.070;8.436;2022-07-17T00:40:36;100928.47;;;17.40;43.20
40730;BME280;26418;50.070;8.436;2022-07-17T00:43:01;100933.78;;;17.36;43.55
40730;BME280;26418;50.070;8.436;2022-07-17T00:45:27;100932.66;;;17.28;43.72
40730;BME280;26418;50.070;8.436;2022-07-17T00:47:53;100937.00;;;17.29;43.82
40730;BME280;26418;50.070;8.436;2022-07-17T00:50:21;100941.81;;;17.24;44.08
40730;BME280;26418;50.070;8.436;2022-07-17T00:52:47;100940.53;;;17.21;44.08
40730;BME280;26418;50.070;8.436;2022-07-17T00:55:13;100943.25;;;17.21;44.40
40730;BME280;26418;50.070;8.436;2022-07-17T00:57:40;100936.66;;;17.13;43.91
40730;BME280;26418;50.070;8.436;2022-07-17T01:00:06;100938.59;;;17.13;44.00
40730;BME280;26418;50.070;8.436;2022-07-17T01:02:35;100935.38;;;17.11;44.29
40730;BME280;26418;50.070;8.436;2022-07-17T01:05:19;100946.97;;;17.17;44.06
40730;BME280;26418;50.070;8.436;2022-07-17T01:07:55;100940.84;;;17.11;44.12
40730;BME280;26418;50.070;8.436;2022-07-17T01:10:21;100934.88;;;17.09;44.18
40730;BME280;26418;50.070;8.436;2022-07-17T01:12:47;100926.03;;;17.03;44.37
40730;BME280;26418;50.070;8.436;2022-07-17T01:15:17;100925.38;;;17.06;44.24
40730;BME280;26418;50.070;8.436;2022-07-17T01:17:43;100931.84;;;17.10;44.12
40730;BME280;26418;50.070;8.436;2022-07-17T01:20:10;100926.38;;;17.10;44.23
40730;BME280;26418;50.070;8.436;2022-07-17T01:22:41;100927.34;;;17.06;44.73
40730;BME280;26418;50.070;8.436;2022-07-17T01:25:07;100916.69;;;16.95;44.39
40730;BME280;26418;50.070;8.436;2022-07-17T01:27:32;100924.72;;;17.01;44.29
40730;BME280;26418;50.070;8.436;2022-07-17T01:29:58;100928.13;;;16.97;44.53
40730;BME280;26418;50.070;8.436;2022-07-17T01:32:37;100931.13;;;16.87;44.70
40730;BME280;26418;50.070;8.436;2022-07-17T01:35:04;100927.41;;;16.83;45.03
40730;BME280;26418;50.070;8.436;2022-07-17T01:37:30;100917.59;;;16.73;45.17
40730;BME280;26418;50.070;8.436;2022-07-17T01:39:57;100899.75;;;16.67;45.12
40730;BME280;26418;50.070;8.436;2022-07-17T01:42:37;100922.72;;;16.75;45.26
40730;BME280;26418;50.070;8.436;2022-07-17T01:45:05;100906.66;;;16.64;45.26
40730;BME280;26418;50.070;8.436;2022-07-17T01:47:31;100931.25;;;16.73;45.44
40730;BME280;26418;50.070;8.436;2022-07-17T01:49:57;100916.13;;;16.67;45.49
40730;BME280;26418;50.070;8.436;2022-07-17T01:52:24;100923.88;;;16.74;45.09
40730;BME280;26418;50.070;8.436;2022-07-17T01:54:58;100922.72;;;16.66;45.17
40730;BME280;26418;50.070;8.436;2022-07-17T01:57:23;100931.53;;;16.63;45.50
40730;BME280;26418;50.070;8.436;2022-07-17T01:59:49;100936.53;;;16.61;45.68
40730;BME280;26418;50.070;8.436;2022-07-17T02:02:14;100939.72;;;16.63;45.62
40730;BME280;26418;50.070;8.436;2022-07-17T02:04:43;100933.28;;;16.59;45.48
40730;BME280;26418;50.070;8.436;2022-07-17T02:07:09;100941.00;;;16.57;45.78
40730;BME280;26418;50.070;8.436;2022-07-17T02:09:35;100940.66;;;16.58;45.48
40730;BME280;26418;50.070;8.436;2022-07-17T02:12:01;100932.94;;;16.52;45.58
40730;BME280;26418;50.070;8.436;2022-07-17T02:14:27;100942.94;;;16.56;45.81
40730;BME280;26418;50.070;8.436;2022-07-17T02:16:56;100946.28;;;16.53;45.76
40730;BME280;26418;50.070;8.436;2022-07-17T02:19:22;100936.75;;;16.42;46.02
40730;BME280;26418;50.070;8.436;2022-07-17T02:21:47;100936.09;;;16.36;45.95
40730;BME280;26418;50.070;8.436;2022-07-17T02:24:12;100944.75;;;16.38;46.07
40730;BME280;26418;50.070;8.436;2022-07-17T02:26:38;100939.13;;;16.34;45.97
40730;BME280;26418;50.070;8.436;2022-07-17T02:29:05;100941.69;;;16.31;46.36
40730;BME280;26418;50.070;8.436;2022-07-17T02:31:30;100941.69;;;16.31;46.35
40730;BME280;26418;50.070;8.436;2022-07-17T02:33:56;100930.09;;;16.25;46.16
40730;BME280;26418;50.070;8.436;2022-07-17T02:36:21;100940.53;;;16.23;46.43
40730;BME280;26418;50.070;8.436;2022-07-17T02:38:47;100941.66;;;16.22;46.49
40730;BME280;26418;50.070;8.436;2022-07-17T02:41:13;100945.00;;;16.19;46.28
40730;BME280;26418;50.070;8.436;2022-07-17T02:43:38;100921.19;;;16.11;46.45
40730;BME280;26418;50.070;8.436;2022-07-17T02:46:03;100935.19;;;16.18;46.46
40730;BME280;26418;50.070;8.436;2022-07-17T02:48:30;100943.72;;;16.16;46.57
40730;BME280;26418;50.070;8.436;2022-07-17T02:50:55;100941.13;;;16.11;46.72
40730;BME280;26418;50.070;8.436;2022-07-17T02:53:21;100944.81;;;16.15;46.91
40730;BME280;26418;50.070;8.436;2022-07-17T02:55:46;100942.84;;;16.07;46.82
40730;BME280;26418;50.070;8.436;2022-07-17T02:58:12;100938.69;;;16.10;46.64
40730;BME280;26418;50.070;8.436;2022-07-17T03:00:37;100936.47;;;16.12;46.74
40730;BME280;26418;50.070;8.436;2022-07-17T03:03:11;100931.16;;;16.07;46.85
40730;BME280;26418;50.070;8.436;2022-07-17T03:05:37;100948.81;;;16.09;47.01
40730;BME280;26418;50.070;8.436;2022-07-17T03:08:03;100954.78;;;16.11;46.94
40730;BME280;26418;50.070;8.436;2022-07-17T03:10:28;100946.88;;;16.10;46.82
40730;BME280;26418;50.070;8.436;2022-07-17T03:12:53;100949.59;;;16.10;46.71
40730;BME280;26418;50.070;8.436;2022-07-17T03:15:19;100931.16;;;16.07;46.86
40730;BME280;26418;50.070;8.436;2022-07-17T03:17:44;100938.69;;;16.10;46.97
40730;BME280;26418;50.070;8.436;2022-07-17T03:20:10;100947.19;;;16.08;46.77
40730;BME280;26418;50.070;8.436;2022-07-17T03:22:36;100937.53;;;16.02;47.17
40730;BME280;26418;50.070;8.436;2022-07-17T03:25:14;100939.59;;;15.96;47.08
40730;BME280;26418;50.070;8.436;2022-07-17T03:27:53;100939.59;;;15.96;47.37
40730;BME280;26418;50.070;8.436;2022-07-17T03:30:18;100942.13;;;15.93;47.16
40730;BME280;26418;50.070;8.436;2022-07-17T03:32:43;100935.19;;;15.86;47.28
40730;BME280;26418;50.070;8.436;2022-07-17T03:35:09;100933.59;;;15.85;47.43
40730;BME280;26418;50.070;8.436;2022-07-17T03:37:34;100929.75;;;15.86;47.52
40730;BME280;26418;50.070;8.436;2022-07-17T03:40:02;100927.31;;;15.85;47.59
40730;BME280;26418;50.070;8.436;2022-07-17T03:42:31;100932.03;;;15.79;47.77
40730;BME280;26418;50.070;8.436;2022-07-17T03:44:57;100926.31;;;15.81;47.70
40730;BME280;26418;50.070;8.436;2022-07-17T03:47:22;100940.94;;;15.85;47.49
40730;BME280;26418;50.070;8.436;2022-07-17T03:49:47;100923.22;;;15.74;47.75
40730;BME280;26418;50.070;8.436;2022-07-17T03:52:13;100938.31;;;15.80;47.82
40730;BME280;26418;50.070;8.436;2022-07-17T03:54:38;100935.88;;;15.78;47.91
40730;BME280;26418;50.070;8.436;2022-07-17T03:57:03;100939.03;;;15.85;47.79
40730;BME280;26418;50.070;8.436;2022-07-17T03:59:36;100949.31;;;15.88;47.82
40730;BME280;26418;50.070;8.436;2022-07-17T04:02:01;100947.69;;;15.87;47.72
40730;BME280;26418;50.070;8.436;2022-07-17T04:04:27;100939.13;;;15.80;47.69
40730;BME280;26418;50.070;8.436;2022-07-17T04:06:52;100924.69;;;15.80;47.74
40730;BME280;26418;50.070;8.436;2022-07-17T04:09:17;100940.66;;;15.86;47.70
40730;BME280;26418;50.070;8.436;2022-07-17T04:11:43;100939.69;;;15.91;47.51
40730;BME280;26418;50.070;8.436;2022-07-17T04:14:08;100936.50;;;15.89;47.76
40730;BME280;26418;50.070;8.436;2022-07-17T04:16:33;100942.75;;;15.90;47.71
40730;BME280;26418;50.070;8.436;2022-07-17T04:18:59;100939.94;;;16.03;47.29
40730;BME280;26418;50.070;8.436;2022-07-17T04:21:24;100931.00;;;16.12;46.95
40730;BME280;26418;50.070;8.436;2022-07-17T04:23:49;100934.84;;;16.11;47.19
40730;BME280;26418;50.070;8.436;2022-07-17T04:26:15;100950.13;;;16.21;46.97
40730;BME280;26418;50.070;8.436;2022-07-17T04:28:42;100953.19;;;16.19;47.30
40730;BME280;26418;50.070;8.436;2022-07-17T04:31:07;100962.13;;;16.11;47.41
40730;BME280;26418;50.070;8.436;2022-07-17T04:33:33;100958.09;;;16.08;47.57
40730;BME280;26418;50.070;8.436;2022-07-17T04:36:00;100961.03;;;16.12;47.67
40730;BME280;26418;50.070;8.436;2022-07-17T04:38:26;100971.00;;;16.16;47.65
40730;BME280;26418;50.070;8.436;2022-07-17T04:40:51;100970.00;;;16.12;48.00
40730;BME280;26418;50.070;8.436;2022-07-17T04:43:17;100969.06;;;16.17;47.63
40730;BME280;26418;50.070;8.436;2022-07-17T04:45:42;100973.22;;;16.14;47.65
40730;BME280;26418;50.070;8.436;2022-07-17T04:48:07;100976.13;;;16.18;47.60
40730;BME280;26418;50.070;8.436;2022-07-17T04:50:42;100974.69;;;16.21;47.82
40730;BME280;26418;50.070;8.436;2022-07-17T04:53:07;100979.69;;;16.18;47.87
40730;BME280;26418;50.070;8.436;2022-07-17T04:55:33;100976.03;;;16.23;47.83
40730;BME280;26418;50.070;8.436;2022-07-17T04:57:58;100972.28;;;16.19;47.83
40730;BME280;26418;50.070;8.436;2022-07-17T05:00:23;100961.19;;;16.15;47.90
40730;BME280;26418;50.070;8.436;2022-07-17T05:02:49;100985.69;;;16.29;48.00
40730;BME280;26418;50.070;8.436;2022-07-17T05:05:14;100966.84;;;16.19;48.18
40730;BME280;26418;50.070;8.436;2022-07-17T05:07:40;100968.97;;;16.31;48.46
40730;BME280;26418;50.070;8.436;2022-07-17T05:10:07;100976.13;;;16.41;47.87
40730;BME280;26418;50.070;8.436;2022-07-17T05:12:42;100982.69;;;16.40;48.53
40730;BME280;26418;50.070;8.436;2022-07-17T05:15:08;100981.28;;;16.51;47.87
40730;BME280;26418;50.070;8.436;2022-07-17T05:17:33;100981.47;;;16.55;48.62
40730;BME280;26418;50.070;8.436;2022-07-17T05:20:04;100989.53;;;16.60;47.51
40730;BME280;26418;50.070;8.436;2022-07-17T05:22:30;100994.53;;;16.66;47.78
40730;BME280;26418;50.070;8.436;2022-07-17T05:24:55;100988.75;;;16.68;47.86
40730;BME280;26418;50.070;8.436;2022-07-17T05:27:20;101004.88;;;16.78;47.54
40730;BME280;26418;50.070;8.436;2022-07-17T05:29:47;100997.03;;;16.86;46.75
40730;BME280;26418;50.070;8.436;2022-07-17T05:32:12;100996.53;;;16.92;46.72
40730;BME280;26418;50.070;8.436;2022-07-17T05:34:37;100967.56;;;16.74;47.34
40730;BME280;26418;50.070;8.436;2022-07-17T05:37:03;101006.09;;;17.04;47.27
40730;BME280;26418;50.070;8.436;2022-07-17T05:39:28;101008.06;;;17.12;47.14
40730;BME280;26418;50.070;8.436;2022-07-17T05:41:53;101003.56;;;17.16;46.85
40730;BME280;26418;50.070;8.436;2022-07-17T05:44:27;101016.75;;;17.23;46.76
40730;BME280;26418;50.070;8.436;2022-07-17T05:46:52;101004.38;;;17.25;46.82
40730;BME280;26418;50.070;8.436;2022-07-17T05:49:18;101001.00;;;17.28;47.14
40730;BME280;26418;50.070;8.436;2022-07-17T05:51:43;100992.81;;;17.37;46.75
40730;BME280;26418;50.070;8.436;2022-07-17T05:54:08;101009.06;;;17.51;46.72
40730;BME280;26418;50.070;8.436;2022-07-17T05:56:33;100999.56;;;17.49;46.76
40730;BME280;26418;50.070;8.436;2022-07-17T05:58:59;100997.81;;;17.53;46.63
40730;BME280;26418;50.070;8.436;2022-07-17T06:01:25;101003.28;;;17.62;46.60
40730;BME280;26418;50.070;8.436;2022-07-17T06:03:50;101005.22;;;17.70;46.62
40730;BME280;26418;50.070;8.436;2022-07-17T06:06:16;101004.06;;;17.80;46.73
40730;BME280;26418;50.070;8.436;2022-07-17T06:08:45;100994.09;;;17.84;46.61
40730;BME280;26418;50.070;8.436;2022-07-17T06:11:10;101005.88;;;18.02;46.75
40730;BME280;26418;50.070;8.436;2022-07-17T06:13:36;101006.00;;;18.14;46.86
40730;BME280;26418;50.070;8.436;2022-07-17T06:16:01;101004.84;;;18.33;45.51
40730;BME280;26418;50.070;8.436;2022-07-17T06:18:26;100991.63;;;18.35;45.85
40730;BME280;26418;50.070;8.436;2022-07-17T06:20:52;100990.78;;;18.43;45.39
40730;BME280;26418;50.070;8.436;2022-07-17T06:23:17;101010.38;;;18.63;44.93
40730;BME280;26418;50.070;8.436;2022-07-17T06:25:42;101007.78;;;18.66;44.41
40730;BME280;26418;50.070;8.436;2022-07-17T06:28:08;101017.75;;;18.80;44.69
40730;BME280;26418;50.070;8.436;2022-07-17T06:30:33;101007.91;;;18.79;44.56
40730;BME280;26418;50.070;8.436;2022-07-17T06:32:58;101028.59;;;19.06;45.41
40730;BME280;26418;50.070;8.436;2022-07-17T06:35:24;101026.25;;;19.26;44.77
40730;BME280;26418;50.070;8.436;2022-07-17T06:37:49;101026.09;;;19.43;44.04
40730;BME280;26418;50.070;8.436;2022-07-17T06:40:14;101017.63;;;19.57;43.69
40730;BME280;26418;50.070;8.436;2022-07-17T06:42:40;101003.38;;;19.64;43.40
40730;BME280;26418;50.070;8.436;2022-07-17T06:45:06;101021.44;;;19.86;42.08
40730;BME280;26418;50.070;8.436;2022-07-17T06:47:31;101024.81;;;19.92;41.94
40730;BME280;26418;50.070;8.436;2022-07-17T06:49:57;101012.56;;;19.89;41.24
40730;BME280;26418;50.070;8.436;2022-07-17T06:52:22;101020.34;;;20.00;40.99
40730;BME280;26418;50.070;8.436;2022-07-17T06:54:49;101007.09;;;20.02;42.62
40730;BME280;26418;50.070;8.436;2022-07-17T06:57:15;101005.84;;;20.11;42.71
40730;BME280;26418;50.070;8.436;2022-07-17T06:59:40;101007.97;;;20.27;41.59
40730;BME280;26418;50.070;8.436;2022-07-17T07:02:06;101006.03;;;20.40;41.25
40730;BME280;26418;50.070;8.436;2022-07-17T07:04:31;101004.81;;;20.50;40.30
40730;BME280;26418;50.070;8.436;2022-07-17T07:06:56;101000.81;;;20.47;39.46
40730;BME280;26418;50.070;8.436;2022-07-17T07:09:22;101014.31;;;20.52;39.13
40730;BME280;26418;50.070;8.436;2022-07-17T07:11:48;101011.56;;;20.52;38.90
40730;BME280;26418;50.070;8.436;2022-07-17T07:14:13;101008.16;;;20.55;39.04
40730;BME280;26418;50.070;8.436;2022-07-17T07:16:39;101023.63;;;20.60;37.96
40730;BME280;26418;50.070;8.436;2022-07-17T07:19:04;101020.75;;;20.56;38.28
40730;BME280;26418;50.070;8.436;2022-07-17T07:21:30;101030.00;;;20.64;38.79
40730;BME280;26418;50.070;8.436;2022-07-17T07:23:58;100996.56;;;20.62;38.59
40730;BME280;26418;50.070;8.436;2022-07-17T07:26:25;101028.56;;;20.92;38.10
40730;BME280;26418;50.070;8.436;2022-07-17T07:28:51;101009.22;;;20.88;37.61
40730;BME280;26418;50.070;8.436;2022-07-17T07:31:17;101033.16;;;21.12;36.52
40730;BME280;26418;50.070;8.436;2022-07-17T07:33:43;101033.72;;;21.18;36.76
40730;BME280;26418;50.070;8.436;2022-07-17T07:36:09;101032.81;;;21.26;36.88
40730;BME280;26418;50.070;8.436;2022-07-17T07:38:34;101019.03;;;21.26;35.96
40730;BME280;26418;50.070;8.436;2022-07-17T07:41:00;101012.50;;;21.18;35.83
40730;BME280;26418;50.070;8.436;2022-07-17T07:43:25;101014.69;;;21.25;36.02
40730;BME280;26418;50.070;8.436;2022-07-17T07:45:51;101015.56;;;21.42;36.50
40730;BME280;26418;50.070;8.436;2022-07-17T07:48:16;101011.63;;;21.55;36.49
40730;BME280;26418;50.070;8.436;2022-07-17T07:50:42;101012.41;;;21.68;35.33
40730;BME280;26418;50.070;8.436;2022-07-17T07:53:07;101007.63;;;21.65;35.24
40730;BME280;26418;50.070;8.436;2022-07-17T07:55:32;100995.69;;;21.61;35.07
40730;BME280;26418;50.070;8.436;2022-07-17T07:58:09;100995.34;;;21.62;35.66
40730;BME280;26418;50.070;8.436;2022-07-17T08:00:35;101009.97;;;21.79;36.25
40730;BME280;26418;50.070;8.436;2022-07-17T08:03:00;101005.00;;;21.85;35.29
40730;BME280;26418;50.070;8.436;2022-07-17T08:05:28;100990.56;;;21.88;35.21
40730;BME280;26418;50.070;8.436;2022-07-17T08:07:53;100993.94;;;21.97;35.38
40730;BME280;26418;50.070;8.436;2022-07-17T08:10:19;100990.88;;;22.14;35.50
40730;BME280;26418;50.070;8.436;2022-07-17T08:12:44;100992.13;;;22.33;35.18
40730;BME280;26418;50.070;8.436;2022-07-17T08:15:10;101002.75;;;22.63;33.76
40730;BME280;26418;50.070;8.436;2022-07-17T08:17:35;100977.91;;;22.79;33.09
40730;BME280;26418;50.070;8.436;2022-07-17T08:20:01;100990.59;;;23.16;33.08
40730;BME280;26418;50.070;8.436;2022-07-17T08:22:26;100987.00;;;23.31;32.51
40730;BME280;26418;50.070;8.436;2022-07-17T08:24:51;100976.97;;;23.43;32.15
40730;BME280;26418;50.070;8.436;2022-07-17T08:27:17;100979.59;;;23.55;32.06
40730;BME280;26418;50.070;8.436;2022-07-17T08:29:42;100969.66;;;23.70;32.07
40730;BME280;26418;50.070;8.436;2022-07-17T08:32:08;100980.31;;;23.91;32.28
40730;BME280;26418;50.070;8.436;2022-07-17T08:34:33;100969.34;;;24.18;31.80
40730;BME280;26418;50.070;8.436;2022-07-17T08:36:58;100969.41;;;24.45;30.62
40730;BME280;26418;50.070;8.436;2022-07-17T08:39:25;100967.56;;;24.53;29.94
40730;BME280;26418;50.070;8.436;2022-07-17T08:41:52;100975.72;;;24.69;30.45
40730;BME280;26418;50.070;8.436;2022-07-17T08:44:18;100973.84;;;25.00;30.39
40730;BME280;26418;50.070;8.436;2022-07-17T08:46:43;100962.25;;;25.21;29.00
40730;BME280;26418;50.070;8.436;2022-07-17T08:49:10;100972.88;;;25.46;28.37
40730;BME280;26418;50.070;8.436;2022-07-17T08:51:36;100977.00;;;25.59;28.25
40730;BME280;26418;50.070;8.436;2022-07-17T08:54:02;100969.72;;;25.81;29.10
40730;BME280;26418;50.070;8.436;2022-07-17T08:56:27;100966.75;;;26.01;28.71
40730;BME280;26418;50.070;8.436;2022-07-17T08:58:53;100977.66;;;26.20;28.15
40730;BME280;26418;50.070;8.436;2022-07-17T09:01:21;100957.56;;;26.34;27.58
40730;BME280;26418;50.070;8.436;2022-07-17T09:04:16;100972.88;;;26.66;27.41
40730;BME280;26418;50.070;8.436;2022-07-17T09:06:42;100968.63;;;26.83;27.11
40730;BME280;26418;50.070;8.436;2022-07-17T09:09:13;100975.53;;;27.04;26.55
40730;BME280;26418;50.070;8.436;2022-07-17T09:11:46;100969.53;;;26.98;25.89
40730;BME280;26418;50.070;8.436;2022-07-17T09:14:17;100977.16;;;27.12;26.58
40730;BME280;26418;50.070;8.436;2022-07-17T09:16:54;100971.22;;;27.21;25.88
40730;BME280;26418;50.070;8.436;2022-07-17T09:19:25;100956.19;;;27.29;26.22
40730;BME280;26418;50.070;8.436;2022-07-17T09:21:51;100972.25;;;27.61;24.97
40730;BME280;26418;50.070;8.436;2022-07-17T09:24:16;100965.50;;;27.69;24.03
40730;BME280;26418;50.070;8.436;2022-07-17T09:26:45;100967.53;;;27.94;24.19
40730;BME280;26418;50.070;8.436;2022-07-17T09:29:11;100964.75;;;27.94;23.97
40730;BME280;26418;50.070;8.436;2022-07-17T09:31:38;100974.75;;;28.10;24.01
40730;BME280;26418;50.070;8.436;2022-07-17T09:34:03;100959.97;;;27.87;23.18
40730;BME280;26418;50.070;8.436;2022-07-17T09:36:29;100966.28;;;27.73;23.82
40730;BME280;26418;50.070;8.436;2022-07-17T09:38:56;100969.50;;;27.86;24.67
40730;BME280;26418;50.070;8.436;2022-07-17T09:41:23;100968.31;;;27.84;24.04
40730;BME280;26418;50.070;8.436;2022-07-17T09:43:58;100975.47;;;27.96;24.51
40730;BME280;26418;50.070;8.436;2022-07-17T09:46:27;100968.41;;;28.34;23.48
40730;BME280;26418;50.070;8.436;2022-07-17T09:49:16;100974.75;;;28.46;23.70
40730;BME280;26418;50.070;8.436;2022-07-17T09:51:42;100961.22;;;28.59;23.52
40730;BME280;26418;50.070;8.436;2022-07-17T09:54:09;100964.38;;;28.90;23.02
40730;BME280;26418;50.070;8.436;2022-07-17T09:56:38;100943.59;;;29.16;23.08
40730;BME280;26418;50.070;8.436;2022-07-17T09:59:05;100950.28;;;29.44;21.92
40730;BME280;26418;50.070;8.436;2022-07-17T10:01:32;100952.97;;;29.62;21.48
40730;BME280;26418;50.070;8.436;2022-07-17T10:03:57;100952.25;;;29.43;21.74
40730;BME280;26418;50.070;8.436;2022-07-17T10:06:24;100952.25;;;29.51;21.83
40730;BME280;26418;50.070;8.436;2022-07-17T10:08:50;100932.41;;;29.38;22.19
40730;BME280;26418;50.070;8.436;2022-07-17T10:11:22;100938.97;;;29.69;22.12
40730;BME280;26418;50.070;8.436;2022-07-17T10:13:49;100941.66;;;29.87;20.74
40730;BME280;26418;50.070;8.436;2022-07-17T10:16:23;100938.47;;;29.92;21.44
40730;BME280;26418;50.070;8.436;2022-07-17T10:18:50;100953.59;;;29.95;20.74
40730;BME280;26418;50.070;8.436;2022-07-17T10:21:18;100957.03;;;30.14;20.92
40730;BME280;26418;50.070;8.436;2022-07-17T10:24:05;100969.78;;;30.15;20.31
40730;BME280;26418;50.070;8.436;2022-07-17T10:29:02;100947.25;;;30.40;20.64
40730;BME280;26418;50.070;8.436;2022-07-17T10:31:29;100957.56;;;30.88;20.69
40730;BME280;26418;50.070;8.436;2022-07-17T10:34:00;100950.41;;;30.87;19.69
40730;BME280;26418;50.070;8.436;2022-07-17T10:36:37;100953.06;;;30.98;20.03
40730;BME280;26418;50.070;8.436;2022-07-17T10:39:13;100947.19;;;31.24;19.88
40730;BME280;26418;50.070;8.436;2022-07-17T10:41:40;100956.13;;;31.42;19.16
40730;BME280;26418;50.070;8.436;2022-07-17T10:44:05;100948.97;;;31.41;18.77
40730;BME280;26418;50.070;8.436;2022-07-17T10:46:31;100951.94;;;31.58;19.14
40730;BME280;26418;50.070;8.436;2022-07-17T10:48:56;100946.66;;;31.63;19.27
40730;BME280;26418;50.070;8.436;2022-07-17T10:51:25;100956.31;;;31.90;18.73
40730;BME280;26418;50.070;8.436;2022-07-17T10:53:56;100954.97;;;32.25;18.70
40730;BME280;26418;50.070;8.436;2022-07-17T10:56:22;100939.00;;;32.46;17.98
40730;BME280;26418;50.070;8.436;2022-07-17T10:58:53;100947.22;;;32.57;18.23
40730;BME280;26418;50.070;8.436;2022-07-17T11:01:25;100945.63;;;32.56;18.55
40730;BME280;26418;50.070;8.436;2022-07-17T11:06:23;100946.31;;;32.40;19.23
40730;BME280;26418;50.070;8.436;2022-07-17T11:08:59;100939.81;;;32.67;18.93
40730;BME280;26418;50.070;8.436;2022-07-17T11:14:20;100950.19;;;32.46;18.66
40730;BME280;26418;50.070;8.436;2022-07-17T11:16:54;100950.06;;;32.29;19.50
40730;BME280;26418;50.070;8.436;2022-07-17T11:19:29;100952.31;;;32.62;19.10
40730;BME280;26418;50.070;8.436;2022-07-17T11:21:59;100940.72;;;32.84;18.67
40730;BME280;26418;50.070;8.436;2022-07-17T11:24:47;100946.19;;;32.91;18.38
40730;BME280;26418;50.070;8.436;2022-07-17T11:27:26;100938.28;;;32.86;18.44
40730;BME280;26418;50.070;8.436;2022-07-17T11:29:53;100938.47;;;32.75;17.72
40730;BME280;26418;50.070;8.436;2022-07-17T11:32:19;100940.13;;;32.72;17.97
40730;BME280;26418;50.070;8.436;2022-07-17T11:34:46;100938.50;;;33.15;18.41
40730;BME280;26418;50.070;8.436;2022-07-17T11:37:11;100927.41;;;33.65;18.67
40730;BME280;26418;50.070;8.436;2022-07-17T11:39:49;100921.91;;;34.11;17.45
40730;BME280;26418;50.070;8.436;2022-07-17T11:42:20;100917.81;;;33.99;17.14
40730;BME280;26418;50.070;8.436;2022-07-17T11:44:48;100922.09;;;34.20;17.71
40730;BME280;26418;50.070;8.436;2022-07-17T11:47:28;100927.56;;;34.57;17.63
40730;BME280;26418;50.070;8.436;2022-07-17T11:50:23;100923.78;;;34.93;17.19
40730;BME280;26418;50.070;8.436;2022-07-17T11:52:49;100926.28;;;34.74;16.48
40730;BME280;26418;50.070;8.436;2022-07-17T11:55:18;100920.22;;;34.76;16.94
40730;BME280;26418;50.070;8.436;2022-07-17T11:57:48;100923.88;;;34.60;16.68
40730;BME280;26418;50.070;8.436;2022-07-17T12:00:18;100917.97;;;34.71;17.40
40730;BME280;26418;50.070;8.436;2022-07-17T12:02:44;100923.13;;;34.72;17.12
40730;BME280;26418;50.070;8.436;2022-07-17T12:05:29;100913.53;;;34.57;16.77
40730;BME280;26418;50.070;8.436;2022-07-17T12:07:57;100903.13;;;34.70;17.42
40730;BME280;26418;50.070;8.436;2022-07-17T12:10:24;100905.41;;;34.88;16.77
40730;BME280;26418;50.070;8.436;2022-07-17T12:12:58;100903.69;;;35.20;16.63
40730;BME280;26418;50.070;8.436;2022-07-17T12:15:47;100894.84;;;35.61;16.25
40730;BME280;26418;50.070;8.436;2022-07-17T12:18:20;100891.47;;;35.66;16.28
40730;BME280;26418;50.070;8.436;2022-07-17T12:20:48;100890.53;;;35.95;16.08
40730;BME280;26418;50.070;8.436;2022-07-17T12:23:36;100897.31;;;35.84;15.83
40730;BME280;26418;50.070;8.436;2022-07-17T12:26:22;100893.06;;;34.86;16.37
40730;BME280;26418;50.070;8.436;2022-07-17T12:28:48;100883.34;;;35.03;16.71
40730;BME280;26418;50.070;8.436;2022-07-17T12:31:13;100883.19;;;34.94;16.65
40730;BME280;26418;50.070;8.436;2022-07-17T12:33:39;100874.00;;;35.32;16.86
40730;BME280;26418;50.070;8.436;2022-07-17T12:36:06;100874.13;;;35.67;16.35
40730;BME280;26418;50.070;8.436;2022-07-17T12:38:31;100881.97;;;35.85;15.90
40730;BME280;26418;50.070;8.436;2022-07-17T12:40:57;100876.53;;;36.04;16.15
40730;BME280;26418;50.070;8.436;2022-07-17T12:43:24;100876.97;;;36.15;16.02
40730;BME280;26418;50.070;8.436;2022-07-17T12:45:49;100868.41;;;36.19;15.75
40730;BME280;26418;50.070;8.436;2022-07-17T12:48:14;100870.09;;;36.52;16.03
40730;BME280;26418;50.070;8.436;2022-07-17T12:50:40;100876.53;;;36.39;15.94
40730;BME280;26418;50.070;8.436;2022-07-17T12:53:05;100874.28;;;36.47;15.75
40730;BME280;26418;50.070;8.436;2022-07-17T12:55:32;100875.00;;;36.25;15.27
40730;BME280;26418;50.070;8.436;2022-07-17T12:57:57;100859.00;;;35.87;15.93
40730;BME280;26418;50.070;8.436;2022-07-17T13:00:22;100864.75;;;35.96;15.92